Time;durP1;ratioP1;P1;durP2;ratioP2;P2;SDS_P1;SDS_P2;PMS_P1;PMS_P2;Temp;Humidity;BMP_temperature;BMP_pressure;BME280_temperature;BME280_humidity;BME280_pressure;Samples;Min_cycle;Max_cycle;Signal;HPM_P1;HPM_P2
2021/09/29 00:00:55;;;;;;;249.60;238.97;;;12.90;99.90;;;;;;4345359;33;20510;-66
2021/09/29 00:03:21;;;;;;;252.97;241.93;;;12.90;99.90;;;;;;4345805;33;20192;-67
2021/09/29 00:05:48;;;;;;;244.60;233.97;;;12.90;99.90;;;;;;4345377;33;20187;-65
2021/09/29 00:08:15;;;;;;;238.03;227.87;;;12.90;99.90;;;;;;4345735;33;20507;-64
2021/09/29 00:10:42;;;;;;;206.53;197.67;;;12.90;99.90;;;;;;4345845;33;20205;-64
2021/09/29 00:13:11;;;;;;;222.47;213.23;;;12.90;99.90;;;;;;4345193;33;20169;-65
2021/09/29 00:15:38;;;;;;;224.50;214.63;;;12.90;99.90;;;;;;4344432;33;20184;-65
2021/09/29 00:18:05;;;;;;;218.93;209.80;;;12.90;99.90;;;;;;4344487;33;20186;-66
2021/09/29 00:20:31;;;;;;;239.57;229.67;;;12.90;99.90;;;;;;4345772;33;20163;-66
2021/09/29 00:22:59;;;;;;;218.07;208.73;;;12.80;99.90;;;;;;4345957;33;20216;-66
2021/09/29 00:25:25;;;;;;;229.57;219.93;;;12.90;99.90;;;;;;4347337;33;20179;-66
2021/09/29 00:27:52;;;;;;;257.23;246.37;;;12.70;99.90;;;;;;4346929;33;20673;-65
2021/09/29 00:30:20;;;;;;;254.20;243.00;;;12.70;99.90;;;;;;4345611;33;20221;-65
2021/09/29 00:32:48;;;;;;;217.07;207.87;;;12.70;99.90;;;;;;4345308;33;20188;-65
2021/09/29 00:35:17;;;;;;;236.60;226.90;;;12.70;99.90;;;;;;4345767;33;20177;-65
2021/09/29 00:37:44;;;;;;;216.20;207.10;;;12.70;99.90;;;;;;4346254;33;20162;-67
2021/09/29 00:40:12;;;;;;;225.80;216.57;;;12.70;99.90;;;;;;4345236;33;20209;-64
2021/09/29 00:42:40;;;;;;;221.43;211.83;;;12.70;99.90;;;;;;4345224;33;20181;-65
2021/09/29 00:45:11;;;;;;;229.83;220.17;;;12.70;99.90;;;;;;4345266;33;20240;-65
2021/09/29 00:47:39;;;;;;;236.03;225.97;;;12.70;99.90;;;;;;4344613;33;20243;-66
2021/09/29 00:50:08;;;;;;;224.10;214.50;;;12.70;99.90;;;;;;4346515;33;20157;-66
2021/09/29 00:52:40;;;;;;;238.13;227.93;;;12.70;99.90;;;;;;4345185;33;20172;-66
2021/09/29 00:55:09;;;;;;;237.53;227.63;;;12.60;99.90;;;;;;4344978;33;20165;-66
2021/09/29 00:57:36;;;;;;;248.20;237.53;;;12.60;99.90;;;;;;4345011;33;20578;-66
2021/09/29 01:00:03;;;;;;;260.43;249.47;;;12.60;99.90;;;;;;4344589;33;20188;-65
2021/09/29 01:02:33;;;;;;;264.13;252.60;;;12.60;99.90;;;;;;4345760;33;20586;-66
2021/09/29 01:05:01;;;;;;;240.03;229.90;;;12.60;99.90;;;;;;4345896;33;20204;-66
2021/09/29 01:07:34;;;;;;;259.80;248.80;;;12.60;99.90;;;;;;4344675;33;20608;-66
2021/09/29 01:10:08;;;;;;;238.70;228.67;;;12.60;99.90;;;;;;4344967;33;20200;-65
2021/09/29 01:12:45;;;;;;;229.70;219.87;;;12.60;99.90;;;;;;4345395;33;20216;-67
2021/09/29 01:15:16;;;;;;;230.83;221.07;;;12.60;99.90;;;;;;4348113;33;20168;-66
2021/09/29 01:17:49;;;;;;;238.07;227.80;;;12.70;99.90;;;;;;4348335;33;20680;-66
2021/09/29 01:20:27;;;;;;;238.10;227.80;;;12.70;99.90;;;;;;4348022;33;20153;-66
2021/09/29 01:23:36;;;;;;;240.07;229.90;;;12.70;99.90;;;;;;4347369;33;20180;-65
2021/09/29 01:26:18;;;;;;;218.50;209.43;;;12.70;99.90;;;;;;4340292;33;20171;-66
2021/09/29 01:28:47;;;;;;;200.57;192.10;;;12.80;99.90;;;;;;4347246;33;20179;-65
2021/09/29 01:31:16;;;;;;;235.90;226.03;;;12.70;99.90;;;;;;4349340;33;20165;-66
2021/09/29 01:33:44;;;;;;;219.80;210.50;;;12.70;99.90;;;;;;4347359;33;20224;-65
2021/09/29 01:36:11;;;;;;;229.87;220.03;;;12.70;99.90;;;;;;4348326;33;20164;-64
2021/09/29 01:38:41;;;;;;;223.00;213.30;;;12.70;99.90;;;;;;4347457;33;20216;-66
2021/09/29 01:41:09;;;;;;;254.13;243.53;;;12.70;99.90;;;;;;4347337;33;20208;-65
2021/09/29 01:43:40;;;;;;;231.90;222.30;;;12.70;99.90;;;;;;4348474;33;20165;-65
2021/09/29 01:46:07;;;;;;;239.20;228.87;;;12.80;99.90;;;;;;4347645;33;20183;-65
2021/09/29 01:48:39;;;;;;;223.53;214.23;;;12.80;99.90;;;;;;4347069;33;20637;-66
2021/09/29 01:51:06;;;;;;;220.57;211.00;;;12.80;99.90;;;;;;4347172;33;20172;-64
2021/09/29 01:53:34;;;;;;;228.43;218.57;;;12.70;99.90;;;;;;4346612;33;20157;-64
2021/09/29 01:56:01;;;;;;;235.03;224.87;;;12.70;99.90;;;;;;4347315;33;20562;-65
2021/09/29 01:58:32;;;;;;;210.67;201.73;;;12.80;99.90;;;;;;4346913;33;20181;-63
2021/09/29 02:01:01;;;;;;;218.43;209.33;;;12.70;99.90;;;;;;4346241;33;20207;-64
2021/09/29 02:03:31;;;;;;;220.03;210.63;;;12.80;99.90;;;;;;4348521;33;20600;-64
2021/09/29 02:06:01;;;;;;;240.37;230.17;;;12.80;99.90;;;;;;4346574;33;20156;-63
2021/09/29 02:08:29;;;;;;;220.77;211.50;;;12.80;99.90;;;;;;4335288;33;20160;-65
2021/09/29 02:10:58;;;;;;;217.33;208.27;;;12.80;99.90;;;;;;4347317;33;20228;-66
2021/09/29 02:13:24;;;;;;;229.37;219.73;;;12.80;99.90;;;;;;4347018;33;20196;-64
2021/09/29 02:15:53;;;;;;;218.67;209.60;;;12.70;99.90;;;;;;4347677;33;20195;-64
2021/09/29 02:18:21;;;;;;;223.13;213.77;;;12.70;99.90;;;;;;4348110;33;20470;-65
2021/09/29 02:20:52;;;;;;;211.47;202.27;;;12.80;99.90;;;;;;4348255;33;20161;-65
2021/09/29 02:23:19;;;;;;;220.50;210.90;;;12.70;99.90;;;;;;4348317;33;20165;-65
2021/09/29 02:25:46;;;;;;;208.23;199.43;;;12.70;99.90;;;;;;4346776;33;20590;-65
2021/09/29 02:28:13;;;;;;;220.53;211.23;;;12.70;99.90;;;;;;4346707;33;20581;-64
2021/09/29 02:30:40;;;;;;;221.90;212.17;;;12.70;99.90;;;;;;4346236;33;20236;-63
2021/09/29 02:33:07;;;;;;;221.07;211.33;;;12.70;99.90;;;;;;4346471;33;20169;-64
2021/09/29 02:35:35;;;;;;;237.50;227.50;;;12.70;99.90;;;;;;4346748;33;20196;-66
2021/09/29 02:38:02;;;;;;;229.53;219.87;;;12.70;99.90;;;;;;4341845;33;20295;-64
2021/09/29 02:40:32;;;;;;;217.53;208.17;;;12.70;99.90;;;;;;4340271;33;20205;-63
2021/09/29 02:43:11;;;;;;;228.33;218.63;;;12.70;99.90;;;;;;4336209;32;20501;-65
2021/09/29 02:45:38;;;;;;;222.97;213.50;;;12.70;99.90;;;;;;4337727;33;20239;-66
2021/09/29 02:48:05;;;;;;;235.53;225.63;;;12.70;99.90;;;;;;4342670;32;20183;-65
2021/09/29 02:50:33;;;;;;;235.43;225.10;;;12.80;99.90;;;;;;4338364;33;20226;-66
2021/09/29 02:53:01;;;;;;;216.13;207.03;;;12.90;99.90;;;;;;4332799;33;20593;-65
2021/09/29 02:55:28;;;;;;;247.17;236.50;;;13.00;99.90;;;;;;4339382;33;20152;-65
2021/09/29 02:57:55;;;;;;;267.93;256.60;;;12.80;99.90;;;;;;4336603;33;20576;-65
2021/09/29 03:00:24;;;;;;;277.97;266.23;;;12.70;99.90;;;;;;4346205;33;20219;-65
2021/09/29 03:02:51;;;;;;;284.90;272.30;;;12.60;99.90;;;;;;4346249;33;20191;-64
2021/09/29 03:05:18;;;;;;;297.50;285.00;;;12.60;99.90;;;;;;4345836;33;20148;-64
2021/09/29 03:07:44;;;;;;;276.93;265.13;;;12.50;99.90;;;;;;4346016;33;20243;-66
2021/09/29 03:10:13;;;;;;;316.57;303.40;;;12.50;99.90;;;;;;4347295;33;20220;-65
2021/09/29 03:12:39;;;;;;;363.40;347.63;;;12.50;99.90;;;;;;4345169;33;20220;-65
2021/09/29 03:15:07;;;;;;;409.80;391.53;;;12.40;99.90;;;;;;4345010;33;20183;-66
2021/09/29 03:17:34;;;;;;;438.17;417.83;;;12.40;99.90;;;;;;4346412;33;20588;-66
2021/09/29 03:20:01;;;;;;;448.33;427.90;;;12.40;99.90;;;;;;4343630;33;20176;-65
2021/09/29 03:22:28;;;;;;;442.80;422.43;;;12.40;99.90;;;;;;4345998;33;20173;-64
2021/09/29 03:24:55;;;;;;;457.93;436.37;;;12.40;99.90;;;;;;4345655;33;20157;-65
2021/09/29 03:27:24;;;;;;;472.57;450.57;;;12.40;99.90;;;;;;4346237;33;20220;-66
2021/09/29 03:29:51;;;;;;;490.77;467.50;;;12.40;99.90;;;;;;4346015;33;20153;-66
2021/09/29 03:32:18;;;;;;;495.53;472.30;;;12.40;99.90;;;;;;4346279;33;20613;-64
2021/09/29 03:34:44;;;;;;;469.03;446.97;;;12.40;99.90;;;;;;4347222;33;20200;-65
2021/09/29 03:37:11;;;;;;;469.97;448.30;;;12.40;99.90;;;;;;4343691;33;20160;-65
2021/09/29 03:39:38;;;;;;;469.93;447.97;;;12.40;99.90;;;;;;4345288;33;20181;-64
2021/09/29 03:42:05;;;;;;;484.67;461.93;;;12.50;99.90;;;;;;4346782;33;20173;-65
2021/09/29 03:44:34;;;;;;;492.83;469.57;;;12.30;99.90;;;;;;4346697;33;20205;-66
2021/09/29 03:47:01;;;;;;;484.00;461.10;;;12.30;99.90;;;;;;4345196;33;20208;-64
2021/09/29 03:49:32;;;;;;;462.57;441.07;;;12.30;99.90;;;;;;4345742;33;20179;-66
2021/09/29 03:52:01;;;;;;;449.00;428.23;;;12.40;99.90;;;;;;4331906;33;20228;-65
2021/09/29 03:54:28;;;;;;;487.40;464.33;;;12.30;99.90;;;;;;4346711;33;20153;-64
2021/09/29 03:56:54;;;;;;;472.97;451.40;;;12.30;99.90;;;;;;4342253;33;20204;-65
2021/09/29 03:59:21;;;;;;;466.10;444.57;;;12.30;99.90;;;;;;4331930;33;20232;-65
2021/09/29 04:01:49;;;;;;;499.60;476.40;;;12.30;99.90;;;;;;4346689;33;20524;-64
2021/09/29 04:04:17;;;;;;;462.53;440.73;;;12.20;99.90;;;;;;4345391;33;20172;-65
2021/09/29 04:06:44;;;;;;;474.23;451.93;;;12.30;99.90;;;;;;4345774;33;20156;-65
2021/09/29 04:09:11;;;;;;;460.40;439.67;;;12.30;99.90;;;;;;4345809;33;20181;-65
2021/09/29 04:11:39;;;;;;;455.50;434.37;;;12.30;99.90;;;;;;4344627;33;20195;-65
2021/09/29 04:14:06;;;;;;;477.17;454.97;;;12.30;99.90;;;;;;4346337;33;20685;-66
2021/09/29 04:16:38;;;;;;;478.60;456.07;;;12.20;99.90;;;;;;4345363;33;20491;-66
2021/09/29 04:19:11;;;;;;;468.97;447.37;;;12.30;99.90;;;;;;4345583;33;20153;-65
2021/09/29 04:21:38;;;;;;;459.50;438.67;;;12.30;99.90;;;;;;4346498;33;20175;-66
2021/09/29 04:24:05;;;;;;;491.30;468.40;;;12.30;99.90;;;;;;4347260;33;20165;-66
2021/09/29 04:26:35;;;;;;;469.47;447.90;;;12.40;99.90;;;;;;4345127;33;20220;-64
2021/09/29 04:29:02;;;;;;;473.50;451.27;;;12.40;99.90;;;;;;4344523;33;20161;-65
2021/09/29 04:31:29;;;;;;;462.17;440.83;;;12.40;99.90;;;;;;4345070;33;20156;-65
2021/09/29 04:33:56;;;;;;;491.77;468.67;;;12.40;99.90;;;;;;4338598;33;20153;-64
2021/09/29 04:36:24;;;;;;;510.63;486.03;;;12.40;99.90;;;;;;4345719;33;20172;-65
2021/09/29 04:38:51;;;;;;;517.10;491.93;;;12.40;99.90;;;;;;4344864;33;20180;-65
2021/09/29 04:41:18;;;;;;;536.73;510.50;;;12.30;99.90;;;;;;4344932;33;20530;-65
2021/09/29 04:43:45;;;;;;;535.50;508.93;;;12.30;99.90;;;;;;4344459;33;20256;-65
2021/09/29 04:46:11;;;;;;;533.93;507.83;;;12.30;99.90;;;;;;4345008;33;20180;-66
2021/09/29 04:48:38;;;;;;;560.97;533.33;;;12.20;99.90;;;;;;4347341;33;20161;-65
2021/09/29 04:51:05;;;;;;;538.83;511.73;;;12.20;99.90;;;;;;4347881;33;20221;-65
2021/09/29 04:53:33;;;;;;;547.83;520.67;;;12.30;99.90;;;;;;4347859;33;20183;-66
2021/09/29 04:56:01;;;;;;;533.23;507.50;;;12.20;99.90;;;;;;4348144;33;20167;-65
2021/09/29 04:58:28;;;;;;;522.60;497.50;;;12.20;99.90;;;;;;4348037;33;20214;-64
2021/09/29 05:00:55;;;;;;;546.60;519.00;;;12.20;99.90;;;;;;4347297;33;20169;-66
2021/09/29 05:03:35;;;;;;;545.67;518.03;;;12.10;99.90;;;;;;4348283;33;20181;-65
2021/09/29 05:06:07;;;;;;;558.70;530.57;;;12.20;99.90;;;;;;4349861;33;20156;-66
2021/09/29 05:08:36;;;;;;;564.67;535.47;;;12.20;99.90;;;;;;4347854;33;20607;-65
2021/09/29 05:11:08;;;;;;;583.50;553.00;;;12.20;99.90;;;;;;4346653;33;20161;-66
2021/09/29 05:13:35;;;;;;;566.30;537.33;;;12.10;99.90;;;;;;4345231;33;20153;-64
2021/09/29 05:16:03;;;;;;;579.53;549.60;;;12.10;99.90;;;;;;4349066;32;20157;-65
2021/09/29 05:18:31;;;;;;;579.90;549.47;;;12.10;99.90;;;;;;4347570;33;20180;-65
2021/09/29 05:20:58;;;;;;;571.80;542.80;;;12.20;99.90;;;;;;4346842;33;20161;-65
2021/09/29 05:23:27;;;;;;;595.03;563.93;;;12.20;99.90;;;;;;4347416;33;20158;-65
2021/09/29 05:25:59;;;;;;;575.57;545.77;;;12.20;99.90;;;;;;4346882;33;20188;-65
2021/09/29 05:28:28;;;;;;;586.63;556.90;;;12.20;99.90;;;;;;4348972;32;20208;-64
2021/09/29 05:30:55;;;;;;;612.90;581.07;;;12.20;99.90;;;;;;4346840;33;20553;-66
2021/09/29 05:33:24;;;;;;;602.90;571.87;;;12.20;99.90;;;;;;4347249;32;20171;-66
2021/09/29 05:35:54;;;;;;;589.20;558.67;;;12.20;99.90;;;;;;4345707;33;20168;-65
2021/09/29 05:38:22;;;;;;;581.47;551.77;;;12.20;99.90;;;;;;4346284;33;20188;-65
2021/09/29 05:40:56;;;;;;;588.97;558.80;;;12.30;99.90;;;;;;4345399;32;20576;-65
2021/09/29 05:43:23;;;;;;;552.77;525.13;;;12.30;99.90;;;;;;4345278;33;20221;-65
2021/09/29 05:45:52;;;;;;;556.60;528.90;;;12.40;99.90;;;;;;4345349;33;20243;-64
2021/09/29 05:48:18;;;;;;;541.20;514.73;;;12.50;99.90;;;;;;4345407;33;20216;-66
2021/09/29 05:51:06;;;;;;;549.80;522.13;;;12.50;99.90;;;;;;4345264;33;20187;-67
2021/09/29 05:53:33;;;;;;;557.17;528.97;;;12.50;99.90;;;;;;4343803;33;20165;-65
2021/09/29 05:56:01;;;;;;;544.23;517.37;;;12.60;99.90;;;;;;4346186;33;20173;-65
2021/09/29 05:58:28;;;;;;;545.87;519.00;;;12.60;99.90;;;;;;4344313;32;20168;-67
2021/09/29 06:00:55;;;;;;;528.27;501.77;;;12.60;99.90;;;;;;4344374;33;20188;-65
2021/09/29 06:03:22;;;;;;;551.87;524.83;;;12.70;99.90;;;;;;4346551;32;20200;-67
2021/09/29 06:05:49;;;;;;;561.80;534.10;;;12.70;99.90;;;;;;4346227;33;20463;-66
2021/09/29 06:08:49;;;;;;;525.80;500.03;;;12.70;99.90;;;;;;4345847;33;20504;-66
2021/09/29 06:11:43;;;;;;;528.07;502.40;;;12.70;99.90;;;;;;4299263;33;20769;-65
2021/09/29 06:14:16;;;;;;;537.23;510.93;;;12.80;99.90;;;;;;4296318;33;20240;-66
2021/09/29 06:16:45;;;;;;;513.90;488.63;;;12.80;99.90;;;;;;4297994;33;20502;-64
2021/09/29 06:19:14;;;;;;;522.77;497.43;;;12.90;99.90;;;;;;4299736;33;20170;-66
2021/09/29 06:21:45;;;;;;;524.43;499.53;;;12.90;99.90;;;;;;4300253;33;20182;-64
2021/09/29 06:24:15;;;;;;;497.70;473.93;;;13.00;99.90;;;;;;4298219;33;20220;-65
2021/09/29 06:26:43;;;;;;;506.17;481.70;;;13.00;99.90;;;;;;4300643;33;20578;-66
2021/09/29 06:29:12;;;;;;;500.07;476.33;;;13.00;99.90;;;;;;4297778;33;20708;-66
2021/09/29 06:31:44;;;;;;;505.50;481.20;;;13.00;99.90;;;;;;4304553;33;20166;-66
2021/09/29 06:34:19;;;;;;;501.77;477.43;;;13.10;99.90;;;;;;4305567;33;20211;-64
2021/09/29 06:36:47;;;;;;;507.77;483.47;;;13.20;99.90;;;;;;4301667;33;20188;-66
2021/09/29 06:39:25;;;;;;;518.10;493.07;;;13.20;99.90;;;;;;4300747;33;20236;-65
2021/09/29 06:41:53;;;;;;;501.93;477.80;;;13.20;99.90;;;;;;4307140;33;20204;-65
2021/09/29 06:44:23;;;;;;;496.63;472.93;;;13.40;99.90;;;;;;4304676;33;20743;-64
2021/09/29 06:46:49;;;;;;;507.57;484.17;;;13.40;99.90;;;;;;4312881;33;20195;-66
2021/09/29 06:49:16;;;;;;;500.67;477.07;;;13.40;99.90;;;;;;4336628;33;20161;-65
2021/09/29 06:51:49;;;;;;;493.90;471.10;;;13.40;99.90;;;;;;4346077;33;20188;-65
2021/09/29 06:54:19;;;;;;;477.33;454.90;;;13.40;99.90;;;;;;4360453;32;20188;-65
2021/09/29 06:56:50;;;;;;;450.57;430.43;;;13.50;99.90;;;;;;4350321;32;20212;-64
2021/09/29 06:59:21;;;;;;;452.40;432.03;;;13.50;99.90;;;;;;4348442;32;21163;-66
2021/09/29 07:01:54;;;;;;;452.37;432.03;;;13.50;99.90;;;;;;4351734;33;20558;-65
2021/09/29 07:04:24;;;;;;;420.57;401.93;;;13.50;99.90;;;;;;4345999;33;20192;-65
2021/09/29 07:06:51;;;;;;;422.60;403.67;;;13.60;99.90;;;;;;4358218;32;20186;-65
2021/09/29 07:09:20;;;;;;;423.50;404.93;;;13.60;99.90;;;;;;4346320;32;20188;-65
2021/09/29 07:11:55;;;;;;;421.60;403.27;;;13.60;99.90;;;;;;4353211;32;20176;-66
2021/09/29 07:14:34;;;;;;;425.60;406.60;;;13.60;99.90;;;;;;4345353;33;20156;-65
2021/09/29 07:17:04;;;;;;;394.90;377.60;;;13.60;99.90;;;;;;4332508;33;20145;-64
2021/09/29 07:19:38;;;;;;;418.73;400.00;;;13.60;99.90;;;;;;4346019;32;20183;-66
2021/09/29 07:22:07;;;;;;;432.73;413.27;;;13.50;99.90;;;;;;4346196;33;20584;-65
2021/09/29 07:24:46;;;;;;;435.07;415.63;;;13.40;99.90;;;;;;4348615;33;20225;-65
2021/09/29 07:27:19;;;;;;;470.50;448.70;;;13.30;99.90;;;;;;4345797;33;20183;-64
2021/09/29 07:29:50;;;;;;;488.97;466.33;;;13.20;99.90;;;;;;4345425;33;20200;-66
2021/09/29 07:32:20;;;;;;;517.50;491.77;;;13.10;99.90;;;;;;4345757;33;20213;-66
2021/09/29 07:34:53;;;;;;;549.13;522.07;;;13.10;99.90;;;;;;4344170;33;20509;-66
2021/09/29 07:37:22;;;;;;;561.73;533.07;;;13.00;99.90;;;;;;4337386;33;20574;-66
2021/09/29 07:39:51;;;;;;;565.17;536.50;;;13.00;99.90;;;;;;4337168;33;20180;-65
2021/09/29 07:42:19;;;;;;;590.97;560.17;;;13.00;99.90;;;;;;4342427;33;20485;-65
2021/09/29 07:44:47;;;;;;;622.93;589.60;;;13.00;99.90;;;;;;4347446;33;20643;-66
2021/09/29 07:47:14;;;;;;;609.83;577.50;;;13.10;99.90;;;;;;4345026;33;20203;-64
2021/09/29 07:49:48;;;;;;;622.77;589.30;;;13.10;99.90;;;;;;4348088;33;20160;-66
2021/09/29 07:52:14;;;;;;;654.63;618.03;;;13.10;99.90;;;;;;4346033;33;20161;-65
2021/09/29 07:54:44;;;;;;;648.00;612.13;;;13.00;99.90;;;;;;4345817;33;20165;-67
2021/09/29 07:57:13;;;;;;;646.30;610.87;;;13.00;99.90;;;;;;4341655;33;20156;-67
2021/09/29 07:59:40;;;;;;;649.77;614.13;;;13.00;99.90;;;;;;4345677;33;20184;-65
2021/09/29 08:02:11;;;;;;;649.67;613.30;;;13.00;99.90;;;;;;4343307;32;20492;-66
2021/09/29 08:04:39;;;;;;;644.43;608.90;;;13.00;99.90;;;;;;4346507;33;20164;-66
2021/09/29 08:07:07;;;;;;;665.87;629.10;;;13.00;99.90;;;;;;4345445;33;20423;-66
2021/09/29 08:09:44;;;;;;;660.17;623.43;;;13.00;99.90;;;;;;4338852;33;20185;-68
2021/09/29 08:12:11;;;;;;;651.47;614.67;;;13.00;99.90;;;;;;4345671;33;20168;-64
2021/09/29 08:14:39;;;;;;;667.00;630.00;;;13.00;99.90;;;;;;4360052;33;20193;-67
2021/09/29 08:17:15;;;;;;;669.87;631.63;;;13.00;99.90;;;;;;4348616;32;20258;-66
2021/09/29 08:19:44;;;;;;;643.93;608.53;;;13.00;99.90;;;;;;4345315;33;20497;-66
2021/09/29 08:22:12;;;;;;;635.83;601.27;;;13.00;99.90;;;;;;4346573;33;20207;-65
2021/09/29 08:24:54;;;;;;;667.87;630.57;;;12.90;99.90;;;;;;4357586;33;20220;-64
2021/09/29 08:27:27;;;;;;;659.67;623.10;;;13.00;99.90;;;;;;4350893;33;20215;-66
2021/09/29 08:33:00;;;;;;;650.90;613.73;;;13.00;99.90;;;;;;4266551;31;6429767;-66
2021/09/29 08:35:32;;;;;;;672.20;634.80;;;13.10;99.90;;;;;;4445831;32;20154;-67
2021/09/29 08:38:05;;;;;;;666.10;628.87;;;13.00;99.90;;;;;;4454126;32;20199;-66
2021/09/29 08:40:46;;;;;;;656.80;619.97;;;13.00;99.90;;;;;;4445787;32;20179;-66
2021/09/29 08:43:25;;;;;;;665.63;628.23;;;13.00;99.90;;;;;;4433728;32;20167;-65
2021/09/29 08:45:57;;;;;;;642.80;606.87;;;13.10;99.90;;;;;;4443332;32;20186;-65
2021/09/29 08:48:32;;;;;;;654.10;618.53;;;13.10;99.90;;;;;;4446446;32;20198;-67
2021/09/29 08:54:18;;;;;;;618.67;585.97;;;13.00;99.90;;;;;;4443464;32;20151;-67
2021/09/29 09:16:29;;;;;;;647.83;612.37;;;12.60;99.90;;;;;;4372504;32;20681;-67
2021/09/29 09:18:56;;;;;;;640.70;605.57;;;12.60;99.90;;;;;;4391949;32;20152;-66
2021/09/29 09:21:27;;;;;;;655.13;619.10;;;12.50;99.90;;;;;;4387943;32;20172;-66
2021/09/29 09:23:55;;;;;;;640.70;605.57;;;12.50;99.90;;;;;;4384637;32;20226;-66
2021/09/29 09:26:25;;;;;;;643.20;607.20;;;12.50;99.90;;;;;;4386215;32;20227;-66
2021/09/29 09:29:06;;;;;;;667.27;630.77;;;12.60;99.90;;;;;;4379542;32;20183;-67
2021/09/29 09:31:34;;;;;;;667.90;630.83;;;12.60;99.90;;;;;;4370441;32;20228;-66
2021/09/29 09:34:07;;;;;;;672.43;634.23;;;12.60;99.90;;;;;;4371803;32;20275;-67
2021/09/29 09:36:42;;;;;;;667.77;630.57;;;12.70;99.90;;;;;;4430991;32;20175;-66
2021/09/29 09:39:16;;;;;;;645.53;610.63;;;12.70;99.90;;;;;;4433202;32;20150;-65
2021/09/29 09:41:47;;;;;;;649.63;613.87;;;12.70;99.90;;;;;;4433201;32;20536;-66
2021/09/29 09:44:24;;;;;;;649.80;614.83;;;12.60;99.90;;;;;;4422032;32;20925;-66
2021/09/29 09:47:01;;;;;;;645.23;610.03;;;12.70;99.90;;;;;;4430316;32;20194;-66
2021/09/29 09:49:28;;;;;;;669.10;632.73;;;12.60;99.90;;;;;;4422723;32;20193;-68
2021/09/29 09:52:00;;;;;;;646.13;611.70;;;12.70;99.90;;;;;;4423129;32;20626;-66
2021/09/29 09:54:34;;;;;;;665.97;629.53;;;12.70;99.90;;;;;;4422351;32;20152;-67
2021/09/29 09:57:01;;;;;;;657.77;621.97;;;12.70;99.90;;;;;;4422569;32;20204;-67
2021/09/29 09:59:33;;;;;;;650.30;615.17;;;12.70;99.90;;;;;;4430219;32;20173;-66
2021/09/29 10:02:07;;;;;;;645.73;611.33;;;12.70;99.90;;;;;;4437689;32;20208;-66
2021/09/29 10:04:34;;;;;;;610.43;578.20;;;12.70;99.90;;;;;;4432075;32;20244;-66
2021/09/29 10:07:05;;;;;;;629.40;595.87;;;12.60;99.90;;;;;;4435163;32;20181;-66
2021/09/29 10:09:39;;;;;;;638.63;605.03;;;12.50;99.90;;;;;;4432126;32;20221;-68
2021/09/29 10:12:19;;;;;;;616.87;584.60;;;12.40;99.90;;;;;;4438699;32;20154;-68
2021/09/29 10:15:01;;;;;;;597.03;566.03;;;12.40;99.90;;;;;;4429186;32;20159;-67
2021/09/29 10:23:19;;;;;;;610.77;578.17;;;12.20;99.90;;;;;;4425281;32;20175;-66
2021/09/29 10:26:11;;;;;;;633.03;599.10;;;12.10;99.90;;;;;;4430450;32;20639;-68
2021/09/29 10:28:40;;;;;;;600.17;568.73;;;12.10;99.90;;;;;;4433970;32;20210;-67
2021/09/29 10:31:27;;;;;;;619.13;586.30;;;12.10;99.90;;;;;;4437742;32;20195;-65
2021/09/29 10:34:05;;;;;;;583.27;553.57;;;12.00;99.90;;;;;;4433678;32;20601;-66
2021/09/29 10:36:45;;;;;;;597.33;566.40;;;11.90;99.90;;;;;;4433129;32;20154;-65
2021/09/29 10:42:19;;;;;;;590.13;559.77;;;11.70;99.90;;;;;;4426952;32;20219;-68
2021/09/29 10:45:28;;;;;;;596.07;565.13;;;11.50;99.90;;;;;;4432223;32;20474;-67
2021/09/29 11:30:43;;;;;;;591.67;561.23;;;12.40;99.90;;;;;;4314268;33;20239;-67
2021/09/29 11:33:17;;;;;;;582.17;553.10;;;12.20;99.90;;;;;;4309671;33;20166;-69
2021/09/29 11:36:01;;;;;;;580.27;550.93;;;12.30;99.90;;;;;;4320862;33;20568;-68
2021/09/29 11:38:47;;;;;;;594.53;563.63;;;12.40;99.90;;;;;;4322465;33;20161;-70
2021/09/29 11:49:59;;;;;;;593.97;563.37;;;14.10;99.90;;;;;;4328774;33;20188;-69
2021/09/29 12:09:09;;;;;;;630.03;595.67;;;14.80;99.90;;;;;;4388586;32;20176;-69
2021/09/29 12:11:51;;;;;;;591.00;560.60;;;14.90;99.90;;;;;;4391556;32;20238;-66
2021/09/29 12:14:20;;;;;;;614.20;581.47;;;15.40;99.90;;;;;;4390878;32;20213;-70
2021/09/29 12:16:50;;;;;;;612.20;579.93;;;16.10;99.90;;;;;;4391698;32;20156;-67
2021/09/29 12:19:24;;;;;;;523.20;497.77;;;16.50;99.90;;;;;;4389843;32;20155;-67
2021/09/29 12:21:52;;;;;;;548.40;520.57;;;16.60;99.90;;;;;;4390972;32;20221;-65
2021/09/29 12:24:37;;;;;;;437.80;418.07;;;16.50;99.90;;;;;;4390989;32;20155;-70
2021/09/29 12:27:11;;;;;;;472.43;450.73;;;16.30;99.90;;;;;;4389281;32;20178;-68
2021/09/29 12:29:48;;;;;;;483.73;461.20;;;15.90;99.90;;;;;;4390647;32;20155;-68
2021/09/29 12:32:28;;;;;;;468.20;446.97;;;15.60;99.90;;;;;;4392036;32;20229;-67
2021/09/29 12:35:15;;;;;;;412.83;394.77;;;15.50;99.90;;;;;;4388720;32;20226;-66
2021/09/29 12:37:59;;;;;;;377.70;361.27;;;15.10;99.90;;;;;;4391092;32;20610;-65
2021/09/29 12:40:28;;;;;;;344.43;329.90;;;14.90;99.90;;;;;;4387990;32;20505;-68
2021/09/29 12:43:02;;;;;;;377.40;361.27;;;14.60;99.90;;;;;;4391586;32;20209;-68
2021/09/29 12:45:32;;;;;;;333.03;319.03;;;14.50;99.90;;;;;;4389621;32;20155;-68
2021/09/29 12:47:59;;;;;;;336.83;322.43;;;14.40;99.90;;;;;;4390118;32;20223;-69
2021/09/29 12:50:37;;;;;;;380.00;363.63;;;14.30;99.90;;;;;;4389425;32;20534;-69
2021/09/29 12:53:25;;;;;;;364.47;349.13;;;14.40;99.90;;;;;;4387096;32;20208;-67
2021/09/29 12:55:57;;;;;;;272.23;261.17;;;14.50;99.90;;;;;;4391263;32;20501;-65
2021/09/29 12:58:27;;;;;;;328.30;314.63;;;14.40;99.90;;;;;;4388847;32;20164;-66
2021/09/29 13:00:56;;;;;;;310.30;297.13;;;14.30;99.90;;;;;;4389927;32;20257;-68
2021/09/29 13:03:26;;;;;;;342.73;327.97;;;14.40;99.90;;;;;;4390809;32;20160;-68
2021/09/29 13:06:02;;;;;;;339.73;325.50;;;14.50;99.90;;;;;;4392422;32;20178;-68
2021/09/29 13:08:31;;;;;;;354.83;340.00;;;14.60;99.90;;;;;;4401387;32;20649;-68
2021/09/29 13:11:01;;;;;;;323.47;310.50;;;14.50;99.90;;;;;;4392342;32;20210;-66
2021/09/29 13:13:31;;;;;;;301.80;289.27;;;14.30;99.90;;;;;;4390512;32;20152;-67
2021/09/29 13:16:00;;;;;;;268.63;257.47;;;14.20;99.90;;;;;;4391484;32;20441;-67
2021/09/29 13:18:39;;;;;;;259.13;248.70;;;14.10;99.90;;;;;;4388109;32;20176;-67
2021/09/29 13:21:13;;;;;;;301.57;289.20;;;14.00;99.90;;;;;;4368909;32;20207;-66
2021/09/29 13:23:44;;;;;;;283.70;272.27;;;14.10;99.90;;;;;;4371460;32;20173;-67
2021/09/29 13:37:10;;;;;;;233.63;223.93;;;14.60;99.90;;;;;;4367358;32;20202;-67
2021/09/29 13:39:36;;;;;;;240.97;231.40;;;14.60;99.90;;;;;;4363364;32;20188;-67
2021/09/29 13:42:04;;;;;;;205.13;196.63;;;14.70;99.90;;;;;;4368331;32;20156;-65
2021/09/29 13:44:31;;;;;;;251.37;241.03;;;14.60;99.90;;;;;;4375311;32;20161;-64
2021/09/29 13:46:58;;;;;;;228.10;218.83;;;14.90;99.90;;;;;;4373064;32;20175;-65
2021/09/29 13:49:26;;;;;;;243.37;233.53;;;15.00;99.90;;;;;;4368723;32;20156;-66
2021/09/29 13:51:58;;;;;;;220.03;211.17;;;15.20;99.90;;;;;;4368157;32;20219;-66
2021/09/29 13:54:28;;;;;;;235.47;225.93;;;15.50;99.90;;;;;;4374452;32;20176;-65
2021/09/29 13:56:58;;;;;;;173.27;165.70;;;15.70;99.90;;;;;;4374717;32;20157;-65
2021/09/29 13:59:41;;;;;;;211.03;202.33;;;15.60;99.90;;;;;;4374184;32;20180;-66
2021/09/29 14:29:48;;;;;;;244.73;234.23;;;13.40;99.90;;;;;;4365067;32;20214;-65
2021/09/29 14:32:19;;;;;;;247.97;238.00;;;13.20;99.90;;;;;;4376651;32;20183;-66
2021/09/29 14:38:11;;;;;;;282.10;270.13;;;12.90;99.90;;;;;;4321879;33;20185;-65
2021/09/29 14:40:42;;;;;;;305.20;292.80;;;12.80;99.90;;;;;;4331801;33;20203;-66
2021/09/29 14:43:13;;;;;;;356.23;341.30;;;12.80;99.90;;;;;;4330071;33;20190;-67
2021/09/29 14:45:51;;;;;;;331.37;317.27;;;13.00;99.90;;;;;;4331315;33;20181;-66
2021/09/29 14:48:20;;;;;;;354.03;339.07;;;13.00;99.90;;;;;;4331403;33;20740;-66
2021/09/29 14:50:53;;;;;;;351.43;336.27;;;13.00;99.90;;;;;;4331059;33;20230;-65